sensor_id;sensor_type;location;lat;lon;timestamp;P1;durP1;ratioP1;P2;durP2;ratioP2
17596;SDS011;8917;50.942;6.946;2024-02-28T00:02:23;33.57;;;21.30;;
17596;SDS011;8917;50.942;6.946;2024-02-28T00:04:50;33.70;;;21.23;;
17596;SDS011;8917;50.942;6.946;2024-02-28T00:07:17;37.03;;;22.07;;
17596;SDS011;8917;50.942;6.946;2024-02-28T00:09:45;32.67;;;21.27;;
17596;SDS011;8917;50.942;6.946;2024-02-28T00:12:13;32.93;;;21.50;;
17596;SDS011;8917;50.942;6.946;2024-02-28T00:14:40;31.33;;;21.07;;
17596;SDS011;8917;50.942;6.946;2024-02-28T00:17:07;37.60;;;21.37;;
17596;SDS011;8917;50.942;6.946;2024-02-28T00:19:34;31.20;;;21.27;;
17596;SDS011;8917;50.942;6.946;2024-02-28T00:22:01;32.10;;;21.23;;
17596;SDS011;8917;50.942;6.946;2024-02-28T00:24:28;35.77;;;21.80;;
17596;SDS011;8917;50.942;6.946;2024-02-28T00:26:57;32.10;;;23.07;;
17596;SDS011;8917;50.942;6.946;2024-02-28T00:29:24;33.97;;;21.73;;
17596;SDS011;8917;50.942;6.946;2024-02-28T00:31:51;31.27;;;21.47;;
17596;SDS011;8917;50.942;6.946;2024-02-28T00:34:19;33.03;;;22.70;;
17596;SDS011;8917;50.942;6.946;2024-02-28T00:36:46;38.27;;;24.10;;
17596;SDS011;8917;50.942;6.946;2024-02-28T00:39:13;34.80;;;23.20;;
17596;SDS011;8917;50.942;6.946;2024-02-28T00:41:40;37.53;;;22.53;;
17596;SDS011;8917;50.942;6.946;2024-02-28T00:44:09;34.90;;;22.57;;
17596;SDS011;8917;50.942;6.946;2024-02-28T00:46:36;34.47;;;21.93;;
17596;SDS011;8917;50.942;6.946;2024-02-28T00:49:03;31.53;;;21.27;;
17596;SDS011;8917;50.942;6.946;2024-02-28T00:51:30;33.53;;;22.00;;
17596;SDS011;8917;50.942;6.946;2024-02-28T00:53:58;30.67;;;21.67;;
17596;SDS011;8917;50.942;6.946;2024-02-28T00:56:25;32.80;;;21.13;;
17596;SDS011;8917;50.942;6.946;2024-02-28T00:58:53;36.40;;;22.53;;
17596;SDS011;8917;50.942;6.946;2024-02-28T01:01:22;34.17;;;22.73;;
17596;SDS011;8917;50.942;6.946;2024-02-28T01:03:49;35.07;;;22.87;;
17596;SDS011;8917;50.942;6.946;2024-02-28T01:06:16;33.23;;;22.13;;
17596;SDS011;8917;50.942;6.946;2024-02-28T01:08:44;34.30;;;22.83;;
17596;SDS011;8917;50.942;6.946;2024-02-28T01:11:11;31.30;;;22.30;;
17596;SDS011;8917;50.942;6.946;2024-02-28T01:13:38;34.73;;;23.07;;
17596;SDS011;8917;50.942;6.946;2024-02-28T01:16:05;36.97;;;22.93;;
17596;SDS011;8917;50.942;6.946;2024-02-28T01:18:34;39.83;;;24.40;;
17596;SDS011;8917;50.942;6.946;2024-02-28T01:21:01;35.80;;;24.00;;
17596;SDS011;8917;50.942;6.946;2024-02-28T01:23:28;38.53;;;25.37;;
17596;SDS011;8917;50.942;6.946;2024-02-28T01:25:56;41.63;;;27.13;;
17596;SDS011;8917;50.942;6.946;2024-02-28T01:28:23;46.03;;;29.47;;
17596;SDS011;8917;50.942;6.946;2024-02-28T01:30:50;48.73;;;31.03;;
17596;SDS011;8917;50.942;6.946;2024-02-28T01:33:18;42.13;;;28.13;;
17596;SDS011;8917;50.942;6.946;2024-02-28T01:35:46;41.30;;;27.83;;
17596;SDS011;8917;50.942;6.946;2024-02-28T01:38:14;53.27;;;32.03;;
17596;SDS011;8917;50.942;6.946;2024-02-28T01:40:44;45.00;;;29.87;;
17596;SDS011;8917;50.942;6.946;2024-02-28T01:43:11;47.10;;;29.97;;
17596;SDS011;8917;50.942;6.946;2024-02-28T01:45:39;45.83;;;29.97;;
17596;SDS011;8917;50.942;6.946;2024-02-28T01:48:06;44.60;;;30.63;;
17596;SDS011;8917;50.942;6.946;2024-02-28T01:50:33;49.67;;;32.53;;
17596;SDS011;8917;50.942;6.946;2024-02-28T01:53:03;44.47;;;30.47;;
17596;SDS011;8917;50.942;6.946;2024-02-28T01:55:30;50.23;;;32.17;;
17596;SDS011;8917;50.942;6.946;2024-02-28T01:57:58;46.97;;;31.40;;
17596;SDS011;8917;50.942;6.946;2024-02-28T02:00:25;49.33;;;31.57;;
17596;SDS011;8917;50.942;6.946;2024-02-28T02:02:54;49.07;;;32.90;;
17596;SDS011;8917;50.942;6.946;2024-02-28T02:05:21;47.93;;;31.67;;
17596;SDS011;8917;50.942;6.946;2024-02-28T02:07:52;50.40;;;33.83;;
17596;SDS011;8917;50.942;6.946;2024-02-28T02:10:22;46.33;;;31.47;;
17596;SDS011;8917;50.942;6.946;2024-02-28T02:12:49;47.83;;;31.73;;
17596;SDS011;8917;50.942;6.946;2024-02-28T02:15:17;49.20;;;33.17;;
17596;SDS011;8917;50.942;6.946;2024-02-28T02:17:44;52.40;;;33.43;;
17596;SDS011;8917;50.942;6.946;2024-02-28T02:20:11;47.43;;;31.60;;
17596;SDS011;8917;50.942;6.946;2024-02-28T02:22:42;52.17;;;32.97;;
17596;SDS011;8917;50.942;6.946;2024-02-28T02:25:09;50.30;;;32.50;;
17596;SDS011;8917;50.942;6.946;2024-02-28T02:27:37;48.93;;;31.90;;
17596;SDS011;8917;50.942;6.946;2024-02-28T02:30:04;47.43;;;31.97;;
17596;SDS011;8917;50.942;6.946;2024-02-28T02:32:32;47.60;;;32.37;;
17596;SDS011;8917;50.942;6.946;2024-02-28T02:34:59;54.23;;;33.63;;
17596;SDS011;8917;50.942;6.946;2024-02-28T02:37:26;46.30;;;31.00;;
17596;SDS011;8917;50.942;6.946;2024-02-28T02:39:54;46.70;;;31.33;;
17596;SDS011;8917;50.942;6.946;2024-02-28T02:42:22;45.17;;;31.37;;
17596;SDS011;8917;50.942;6.946;2024-02-28T02:44:49;47.73;;;31.07;;
17596;SDS011;8917;50.942;6.946;2024-02-28T02:47:16;46.97;;;31.10;;
17596;SDS011;8917;50.942;6.946;2024-02-28T02:49:43;44.40;;;29.53;;
17596;SDS011;8917;50.942;6.946;2024-02-28T02:52:10;47.53;;;30.97;;
17596;SDS011;8917;50.942;6.946;2024-02-28T02:54:37;50.80;;;31.47;;
17596;SDS011;8917;50.942;6.946;2024-02-28T02:57:06;50.37;;;33.63;;
17596;SDS011;8917;50.942;6.946;2024-02-28T02:59:33;56.00;;;33.70;;
17596;SDS011;8917;50.942;6.946;2024-02-28T03:02:00;47.43;;;32.43;;
17596;SDS011;8917;50.942;6.946;2024-02-28T03:04:28;50.83;;;33.30;;
17596;SDS011;8917;50.942;6.946;2024-02-28T03:06:56;50.33;;;31.97;;
17596;SDS011;8917;50.942;6.946;2024-02-28T03:09:23;48.33;;;31.33;;
17596;SDS011;8917;50.942;6.946;2024-02-28T03:11:50;47.33;;;31.57;;
17596;SDS011;8917;50.942;6.946;2024-02-28T03:14:19;48.50;;;31.27;;
17596;SDS011;8917;50.942;6.946;2024-02-28T03:16:47;47.10;;;31.07;;
17596;SDS011;8917;50.942;6.946;2024-02-28T03:19:14;47.60;;;30.83;;
17596;SDS011;8917;50.942;6.946;2024-02-28T03:21:41;44.97;;;30.53;;
17596;SDS011;8917;50.942;6.946;2024-02-28T03:24:09;46.33;;;31.07;;
17596;SDS011;8917;50.942;6.946;2024-02-28T03:26:36;48.57;;;32.20;;
17596;SDS011;8917;50.942;6.946;2024-02-28T03:29:03;53.03;;;33.53;;
17596;SDS011;8917;50.942;6.946;2024-02-28T03:31:31;47.73;;;31.03;;
17596;SDS011;8917;50.942;6.946;2024-02-28T03:33:58;48.00;;;31.33;;
17596;SDS011;8917;50.942;6.946;2024-02-28T03:36:27;51.80;;;33.03;;
17596;SDS011;8917;50.942;6.946;2024-02-28T03:38:54;52.47;;;32.60;;
17596;SDS011;8917;50.942;6.946;2024-02-28T03:41:21;52.37;;;32.53;;
17596;SDS011;8917;50.942;6.946;2024-02-28T03:43:48;50.63;;;32.30;;
17596;SDS011;8917;50.942;6.946;2024-02-28T03:46:15;52.37;;;32.90;;
17596;SDS011;8917;50.942;6.946;2024-02-28T03:48:44;47.63;;;30.33;;
17596;SDS011;8917;50.942;6.946;2024-02-28T03:51:11;49.27;;;30.53;;
17596;SDS011;8917;50.942;6.946;2024-02-28T03:53:40;50.20;;;31.07;;
17596;SDS011;8917;50.942;6.946;2024-02-28T03:56:07;48.73;;;31.23;;
17596;SDS011;8917;50.942;6.946;2024-02-28T03:58:34;49.87;;;30.53;;
17596;SDS011;8917;50.942;6.946;2024-02-28T04:01:01;48.83;;;31.60;;
17596;SDS011;8917;50.942;6.946;2024-02-28T04:03:28;50.07;;;30.73;;
17596;SDS011;8917;50.942;6.946;2024-02-28T04:05:57;52.47;;;32.33;;
17596;SDS011;8917;50.942;6.946;2024-02-28T04:08:24;53.93;;;34.07;;
17596;SDS011;8917;50.942;6.946;2024-02-28T04:10:51;47.57;;;30.47;;
17596;SDS011;8917;50.942;6.946;2024-02-28T04:13:18;50.83;;;32.43;;
17596;SDS011;8917;50.942;6.946;2024-02-28T04:15:46;52.13;;;32.47;;
17596;SDS011;8917;50.942;6.946;2024-02-28T04:18:13;57.40;;;33.53;;
17596;SDS011;8917;50.942;6.946;2024-02-28T04:20:40;52.87;;;32.50;;
17596;SDS011;8917;50.942;6.946;2024-02-28T04:23:08;54.97;;;34.30;;
17596;SDS011;8917;50.942;6.946;2024-02-28T04:25:35;51.43;;;30.73;;
17596;SDS011;8917;50.942;6.946;2024-02-28T04:28:05;53.13;;;32.47;;
17596;SDS011;8917;50.942;6.946;2024-02-28T04:30:33;52.80;;;33.20;;
17596;SDS011;8917;50.942;6.946;2024-02-28T04:33:01;53.00;;;33.47;;
17596;SDS011;8917;50.942;6.946;2024-02-28T04:35:28;50.63;;;31.40;;
17596;SDS011;8917;50.942;6.946;2024-02-28T04:37:55;57.00;;;34.00;;
17596;SDS011;8917;50.942;6.946;2024-02-28T04:40:24;53.43;;;32.97;;
17596;SDS011;8917;50.942;6.946;2024-02-28T04:42:51;53.63;;;31.67;;
17596;SDS011;8917;50.942;6.946;2024-02-28T04:45:18;59.53;;;34.47;;
17596;SDS011;8917;50.942;6.946;2024-02-28T04:47:45;51.57;;;31.97;;
17596;SDS011;8917;50.942;6.946;2024-02-28T04:50:12;56.10;;;33.07;;
17596;SDS011;8917;50.942;6.946;2024-02-28T04:52:40;55.40;;;33.87;;
17596;SDS011;8917;50.942;6.946;2024-02-28T04:55:07;52.00;;;32.70;;
17596;SDS011;8917;50.942;6.946;2024-02-28T04:57:35;54.10;;;33.43;;
17596;SDS011;8917;50.942;6.946;2024-02-28T05:00:03;53.17;;;32.00;;
17596;SDS011;8917;50.942;6.946;2024-02-28T05:02:30;51.57;;;32.10;;
17596;SDS011;8917;50.942;6.946;2024-02-28T05:04:58;53.13;;;32.90;;
17596;SDS011;8917;50.942;6.946;2024-02-28T05:07:25;57.83;;;33.70;;
17596;SDS011;8917;50.942;6.946;2024-02-28T05:09:52;58.73;;;34.33;;
17596;SDS011;8917;50.942;6.946;2024-02-28T05:12:19;53.93;;;33.70;;
17596;SDS011;8917;50.942;6.946;2024-02-28T05:14:48;53.27;;;32.63;;
17596;SDS011;8917;50.942;6.946;2024-02-28T05:17:15;53.97;;;32.27;;
17596;SDS011;8917;50.942;6.946;2024-02-28T05:19:43;53.53;;;33.50;;
17596;SDS011;8917;50.942;6.946;2024-02-28T05:22:10;59.13;;;33.63;;
17596;SDS011;8917;50.942;6.946;2024-02-28T05:24:37;55.90;;;33.87;;
17596;SDS011;8917;50.942;6.946;2024-02-28T05:27:04;55.80;;;33.67;;
17596;SDS011;8917;50.942;6.946;2024-02-28T05:29:31;55.97;;;33.37;;
17596;SDS011;8917;50.942;6.946;2024-02-28T05:32:00;53.90;;;33.93;;
17596;SDS011;8917;50.942;6.946;2024-02-28T05:34:27;56.03;;;33.50;;
17596;SDS011;8917;50.942;6.946;2024-02-28T05:36:54;58.07;;;33.43;;
17596;SDS011;8917;50.942;6.946;2024-02-28T05:39:22;53.20;;;31.80;;
17596;SDS011;8917;50.942;6.946;2024-02-28T05:41:49;58.50;;;33.87;;
17596;SDS011;8917;50.942;6.946;2024-02-28T05:44:16;58.20;;;34.13;;
17596;SDS011;8917;50.942;6.946;2024-02-28T05:46:43;59.10;;;33.33;;
17596;SDS011;8917;50.942;6.946;2024-02-28T05:49:11;59.33;;;33.73;;
17596;SDS011;8917;50.942;6.946;2024-02-28T05:51:39;56.17;;;33.03;;
17596;SDS011;8917;50.942;6.946;2024-02-28T05:54:06;56.67;;;33.50;;
17596;SDS011;8917;50.942;6.946;2024-02-28T05:56:33;57.53;;;33.83;;
17596;SDS011;8917;50.942;6.946;2024-02-28T05:59:00;56.27;;;33.97;;
17596;SDS011;8917;50.942;6.946;2024-02-28T06:01:27;60.57;;;36.63;;
17596;SDS011;8917;50.942;6.946;2024-02-28T06:03:55;54.57;;;33.27;;
17596;SDS011;8917;50.942;6.946;2024-02-28T06:06:23;63.47;;;35.20;;
17596;SDS011;8917;50.942;6.946;2024-02-28T06:08:51;57.70;;;34.60;;
17596;SDS011;8917;50.942;6.946;2024-02-28T06:11:18;58.30;;;34.13;;
17596;SDS011;8917;50.942;6.946;2024-02-28T06:13:45;53.03;;;32.23;;
17596;SDS011;8917;50.942;6.946;2024-02-28T06:16:15;58.30;;;33.60;;
17596;SDS011;8917;50.942;6.946;2024-02-28T06:18:43;58.57;;;34.03;;
17596;SDS011;8917;50.942;6.946;2024-02-28T06:21:10;54.17;;;31.50;;
17596;SDS011;8917;50.942;6.946;2024-02-28T06:23:39;54.67;;;32.13;;
17596;SDS011;8917;50.942;6.946;2024-02-28T06:26:06;54.97;;;32.57;;
17596;SDS011;8917;50.942;6.946;2024-02-28T06:28:39;51.23;;;31.13;;
17596;SDS011;8917;50.942;6.946;2024-02-28T06:31:11;53.57;;;31.53;;
17596;SDS011;8917;50.942;6.946;2024-02-28T06:33:38;60.53;;;33.17;;
17596;SDS011;8917;50.942;6.946;2024-02-28T06:36:06;56.17;;;32.83;;
17596;SDS011;8917;50.942;6.946;2024-02-28T06:38:33;53.77;;;33.27;;
17596;SDS011;8917;50.942;6.946;2024-02-28T06:41:02;53.50;;;31.33;;
17596;SDS011;8917;50.942;6.946;2024-02-28T06:43:30;54.63;;;31.77;;
17596;SDS011;8917;50.942;6.946;2024-02-28T06:45:57;57.77;;;33.23;;
17596;SDS011;8917;50.942;6.946;2024-02-28T06:48:24;55.90;;;32.80;;
17596;SDS011;8917;50.942;6.946;2024-02-28T06:50:51;61.10;;;33.17;;
17596;SDS011;8917;50.942;6.946;2024-02-28T06:53:19;59.50;;;33.50;;
17596;SDS011;8917;50.942;6.946;2024-02-28T06:55:46;55.20;;;32.43;;
17596;SDS011;8917;50.942;6.946;2024-02-28T06:58:15;56.93;;;33.40;;
17596;SDS011;8917;50.942;6.946;2024-02-28T07:00:42;57.60;;;33.23;;
17596;SDS011;8917;50.942;6.946;2024-02-28T07:03:09;59.67;;;34.83;;
17596;SDS011;8917;50.942;6.946;2024-02-28T07:05:36;59.43;;;34.10;;
17596;SDS011;8917;50.942;6.946;2024-02-28T07:08:04;58.53;;;33.50;;
17596;SDS011;8917;50.942;6.946;2024-02-28T07:10:31;60.00;;;34.37;;
17596;SDS011;8917;50.942;6.946;2024-02-28T07:12:58;58.60;;;33.67;;
17596;SDS011;8917;50.942;6.946;2024-02-28T07:15:26;60.50;;;34.20;;
17596;SDS011;8917;50.942;6.946;2024-02-28T07:17:54;60.17;;;34.90;;
17596;SDS011;8917;50.942;6.946;2024-02-28T07:20:21;60.80;;;33.90;;
17596;SDS011;8917;50.942;6.946;2024-02-28T07:22:49;63.03;;;34.60;;
17596;SDS011;8917;50.942;6.946;2024-02-28T07:25:16;64.23;;;34.87;;
17596;SDS011;8917;50.942;6.946;2024-02-28T07:27:44;62.90;;;34.77;;
17596;SDS011;8917;50.942;6.946;2024-02-28T07:30:11;61.50;;;34.93;;
17596;SDS011;8917;50.942;6.946;2024-02-28T07:32:40;60.97;;;34.73;;
17596;SDS011;8917;50.942;6.946;2024-02-28T07:35:07;60.10;;;35.30;;
17596;SDS011;8917;50.942;6.946;2024-02-28T07:37:35;60.40;;;32.87;;
17596;SDS011;8917;50.942;6.946;2024-02-28T07:40:03;59.93;;;34.00;;
17596;SDS011;8917;50.942;6.946;2024-02-28T07:42:30;56.67;;;34.13;;
17596;SDS011;8917;50.942;6.946;2024-02-28T07:44:57;61.73;;;33.90;;
17596;SDS011;8917;50.942;6.946;2024-02-28T07:47:24;59.00;;;34.57;;
17596;SDS011;8917;50.942;6.946;2024-02-28T07:49:53;58.07;;;33.53;;
17596;SDS011;8917;50.942;6.946;2024-02-28T07:52:20;60.17;;;34.20;;
17596;SDS011;8917;50.942;6.946;2024-02-28T07:54:48;58.87;;;34.00;;
17596;SDS011;8917;50.942;6.946;2024-02-28T07:57:15;64.50;;;34.80;;
17596;SDS011;8917;50.942;6.946;2024-02-28T07:59:42;59.40;;;34.37;;
17596;SDS011;8917;50.942;6.946;2024-02-28T08:02:09;63.03;;;35.20;;
17596;SDS011;8917;50.942;6.946;2024-02-28T08:04:38;59.07;;;33.77;;
17596;SDS011;8917;50.942;6.946;2024-02-28T08:07:06;60.50;;;33.60;;
17596;SDS011;8917;50.942;6.946;2024-02-28T08:09:33;61.23;;;34.40;;
17596;SDS011;8917;50.942;6.946;2024-02-28T08:12:00;58.53;;;35.70;;
17596;SDS011;8917;50.942;6.946;2024-02-28T08:14:28;59.97;;;33.43;;
17596;SDS011;8917;50.942;6.946;2024-02-28T08:16:55;61.47;;;33.83;;
17596;SDS011;8917;50.942;6.946;2024-02-28T08:19:22;60.97;;;33.83;;
17596;SDS011;8917;50.942;6.946;2024-02-28T08:21:49;63.23;;;35.17;;
17596;SDS011;8917;50.942;6.946;2024-02-28T08:24:18;62.27;;;36.03;;
17596;SDS011;8917;50.942;6.946;2024-02-28T08:26:45;62.27;;;35.90;;
17596;SDS011;8917;50.942;6.946;2024-02-28T08:29:12;59.20;;;33.17;;
17596;SDS011;8917;50.942;6.946;2024-02-28T08:31:40;57.30;;;33.63;;
17596;SDS011;8917;50.942;6.946;2024-02-28T08:34:08;59.30;;;33.70;;
17596;SDS011;8917;50.942;6.946;2024-02-28T08:36:35;58.67;;;35.03;;
17596;SDS011;8917;50.942;6.946;2024-02-28T08:39:02;58.00;;;33.23;;
17596;SDS011;8917;50.942;6.946;2024-02-28T08:41:33;58.33;;;34.03;;
17596;SDS011;8917;50.942;6.946;2024-02-28T08:44:00;60.97;;;35.77;;
17596;SDS011;8917;50.942;6.946;2024-02-28T08:46:27;58.70;;;33.33;;
17596;SDS011;8917;50.942;6.946;2024-02-28T08:48:54;56.83;;;32.27;;
17596;SDS011;8917;50.942;6.946;2024-02-28T08:51:22;48.23;;;30.40;;
17596;SDS011;8917;50.942;6.946;2024-02-28T08:53:49;50.80;;;30.80;;
17596;SDS011;8917;50.942;6.946;2024-02-28T08:56:17;55.50;;;33.87;;
17596;SDS011;8917;50.942;6.946;2024-02-28T08:58:46;45.43;;;27.67;;
17596;SDS011;8917;50.942;6.946;2024-02-28T09:01:13;48.57;;;28.53;;
17596;SDS011;8917;50.942;6.946;2024-02-28T09:03:41;50.13;;;30.40;;
17596;SDS011;8917;50.942;6.946;2024-02-28T09:06:08;45.43;;;27.63;;
17596;SDS011;8917;50.942;6.946;2024-02-28T09:08:35;43.77;;;28.77;;
17596;SDS011;8917;50.942;6.946;2024-02-28T09:11:03;47.20;;;29.00;;
17596;SDS011;8917;50.942;6.946;2024-02-28T09:13:31;48.53;;;29.70;;
17596;SDS011;8917;50.942;6.946;2024-02-28T09:16:02;49.63;;;30.37;;
17596;SDS011;8917;50.942;6.946;2024-02-28T09:18:29;53.00;;;30.40;;
17596;SDS011;8917;50.942;6.946;2024-02-28T09:20:56;54.23;;;31.10;;
17596;SDS011;8917;50.942;6.946;2024-02-28T09:23:23;47.07;;;30.63;;
17596;SDS011;8917;50.942;6.946;2024-02-28T09:25:50;47.23;;;29.13;;
17596;SDS011;8917;50.942;6.946;2024-02-28T09:28:18;50.43;;;30.77;;
17596;SDS011;8917;50.942;6.946;2024-02-28T09:30:45;50.50;;;31.43;;
17596;SDS011;8917;50.942;6.946;2024-02-28T09:33:16;51.03;;;31.47;;
17596;SDS011;8917;50.942;6.946;2024-02-28T09:35:44;46.97;;;30.07;;
17596;SDS011;8917;50.942;6.946;2024-02-28T09:38:11;50.13;;;30.93;;
17596;SDS011;8917;50.942;6.946;2024-02-28T09:40:38;47.80;;;30.67;;
17596;SDS011;8917;50.942;6.946;2024-02-28T09:43:10;50.60;;;30.33;;
17596;SDS011;8917;50.942;6.946;2024-02-28T09:45:38;47.07;;;28.90;;
17596;SDS011;8917;50.942;6.946;2024-02-28T09:48:06;46.00;;;29.37;;
17596;SDS011;8917;50.942;6.946;2024-02-28T09:50:35;49.07;;;30.20;;
17596;SDS011;8917;50.942;6.946;2024-02-28T09:53:02;45.33;;;29.90;;
17596;SDS011;8917;50.942;6.946;2024-02-28T09:55:29;52.30;;;31.00;;
17596;SDS011;8917;50.942;6.946;2024-02-28T09:57:57;50.43;;;29.87;;
17596;SDS011;8917;50.942;6.946;2024-02-28T10:00:24;49.80;;;30.83;;
17596;SDS011;8917;50.942;6.946;2024-02-28T10:02:52;49.87;;;29.93;;
17596;SDS011;8917;50.942;6.946;2024-02-28T10:05:20;50.63;;;29.30;;
17596;SDS011;8917;50.942;6.946;2024-02-28T10:07:53;59.30;;;30.67;;
17596;SDS011;8917;50.942;6.946;2024-02-28T10:10:21;53.17;;;32.23;;
17596;SDS011;8917;50.942;6.946;2024-02-28T10:12:48;53.60;;;31.50;;
17596;SDS011;8917;50.942;6.946;2024-02-28T10:15:16;52.73;;;30.93;;
17596;SDS011;8917;50.942;6.946;2024-02-28T10:17:43;50.97;;;31.43;;
17596;SDS011;8917;50.942;6.946;2024-02-28T10:20:10;50.00;;;30.07;;
17596;SDS011;8917;50.942;6.946;2024-02-28T10:22:37;48.23;;;30.83;;
17596;SDS011;8917;50.942;6.946;2024-02-28T10:25:06;49.40;;;30.47;;
17596;SDS011;8917;50.942;6.946;2024-02-28T10:27:34;52.40;;;29.73;;
17596;SDS011;8917;50.942;6.946;2024-02-28T10:30:01;51.80;;;30.73;;
17596;SDS011;8917;50.942;6.946;2024-02-28T10:32:29;48.07;;;30.20;;
17596;SDS011;8917;50.942;6.946;2024-02-28T10:34:58;48.20;;;30.50;;
17596;SDS011;8917;50.942;6.946;2024-02-28T10:37:26;49.30;;;30.40;;
17596;SDS011;8917;50.942;6.946;2024-02-28T10:39:56;47.27;;;29.40;;
17596;SDS011;8917;50.942;6.946;2024-02-28T10:42:26;51.17;;;30.53;;
17596;SDS011;8917;50.942;6.946;2024-02-28T10:44:57;48.90;;;30.20;;
17596;SDS011;8917;50.942;6.946;2024-02-28T10:47:25;50.90;;;30.70;;
17596;SDS011;8917;50.942;6.946;2024-02-28T10:49:53;47.83;;;30.03;;
17596;SDS011;8917;50.942;6.946;2024-02-28T10:52:21;48.07;;;28.73;;
17596;SDS011;8917;50.942;6.946;2024-02-28T10:54:50;54.87;;;31.53;;
17596;SDS011;8917;50.942;6.946;2024-02-28T10:57:19;54.37;;;31.33;;
17596;SDS011;8917;50.942;6.946;2024-02-28T10:59:47;48.03;;;29.50;;
17596;SDS011;8917;50.942;6.946;2024-02-28T11:02:15;55.90;;;31.03;;
17596;SDS011;8917;50.942;6.946;2024-02-28T11:04:42;47.00;;;27.60;;
17596;SDS011;8917;50.942;6.946;2024-02-28T11:07:10;40.43;;;27.20;;
17596;SDS011;8917;50.942;6.946;2024-02-28T11:09:40;45.60;;;28.73;;
17596;SDS011;8917;50.942;6.946;2024-02-28T11:12:12;46.67;;;30.40;;
17596;SDS011;8917;50.942;6.946;2024-02-28T11:14:56;48.87;;;28.77;;
17596;SDS011;8917;50.942;6.946;2024-02-28T11:17:26;41.93;;;27.67;;
17596;SDS011;8917;50.942;6.946;2024-02-28T11:19:54;46.90;;;30.40;;
17596;SDS011;8917;50.942;6.946;2024-02-28T11:22:21;44.13;;;28.53;;
17596;SDS011;8917;50.942;6.946;2024-02-28T11:24:48;44.17;;;28.90;;
17596;SDS011;8917;50.942;6.946;2024-02-28T11:27:16;42.23;;;27.37;;
17596;SDS011;8917;50.942;6.946;2024-02-28T11:29:43;41.30;;;28.07;;
17596;SDS011;8917;50.942;6.946;2024-02-28T11:32:13;43.97;;;28.47;;
17596;SDS011;8917;50.942;6.946;2024-02-28T11:34:41;43.80;;;27.77;;
17596;SDS011;8917;50.942;6.946;2024-02-28T11:37:09;46.33;;;29.27;;
17596;SDS011;8917;50.942;6.946;2024-02-28T11:39:36;46.37;;;30.20;;
17596;SDS011;8917;50.942;6.946;2024-02-28T11:42:10;41.33;;;27.07;;
17596;SDS011;8917;50.942;6.946;2024-02-28T11:44:38;47.07;;;28.73;;
17596;SDS011;8917;50.942;6.946;2024-02-28T11:47:08;41.83;;;26.73;;
17596;SDS011;8917;50.942;6.946;2024-02-28T11:49:36;36.73;;;23.83;;
17596;SDS011;8917;50.942;6.946;2024-02-28T11:52:04;43.17;;;27.13;;
17596;SDS011;8917;50.942;6.946;2024-02-28T11:54:31;42.97;;;27.57;;
17596;SDS011;8917;50.942;6.946;2024-02-28T11:56:58;39.63;;;26.97;;
17596;SDS011;8917;50.942;6.946;2024-02-28T11:59:26;40.37;;;25.80;;
17596;SDS011;8917;50.942;6.946;2024-02-28T12:01:53;38.17;;;25.23;;
17596;SDS011;8917;50.942;6.946;2024-02-28T12:04:20;43.40;;;27.23;;
17596;SDS011;8917;50.942;6.946;2024-02-28T12:06:52;40.60;;;27.57;;
17596;SDS011;8917;50.942;6.946;2024-02-28T12:09:19;37.93;;;25.20;;
17596;SDS011;8917;50.942;6.946;2024-02-28T12:11:46;39.87;;;26.73;;
17596;SDS011;8917;50.942;6.946;2024-02-28T12:14:14;36.93;;;24.37;;
17596;SDS011;8917;50.942;6.946;2024-02-28T12:16:42;38.00;;;25.30;;
17596;SDS011;8917;50.942;6.946;2024-02-28T12:19:11;33.53;;;22.00;;
17596;SDS011;8917;50.942;6.946;2024-02-28T12:21:40;35.27;;;24.27;;
17596;SDS011;8917;50.942;6.946;2024-02-28T12:24:09;45.20;;;23.50;;
17596;SDS011;8917;50.942;6.946;2024-02-28T12:26:36;36.57;;;23.70;;
17596;SDS011;8917;50.942;6.946;2024-02-28T12:29:03;42.20;;;25.63;;
17596;SDS011;8917;50.942;6.946;2024-02-28T12:31:31;36.90;;;24.27;;
17596;SDS011;8917;50.942;6.946;2024-02-28T12:33:58;36.10;;;23.67;;
17596;SDS011;8917;50.942;6.946;2024-02-28T12:36:25;34.90;;;23.17;;
17596;SDS011;8917;50.942;6.946;2024-02-28T12:38:52;37.10;;;24.27;;
17596;SDS011;8917;50.942;6.946;2024-02-28T12:41:21;36.70;;;23.10;;
17596;SDS011;8917;50.942;6.946;2024-02-28T12:43:48;34.93;;;23.37;;
17596;SDS011;8917;50.942;6.946;2024-02-28T12:46:16;33.70;;;22.60;;
17596;SDS011;8917;50.942;6.946;2024-02-28T12:48:43;35.77;;;22.30;;
17596;SDS011;8917;50.942;6.946;2024-02-28T12:51:20;36.07;;;21.33;;
17596;SDS011;8917;50.942;6.946;2024-02-28T12:53:48;46.77;;;25.33;;
17596;SDS011;8917;50.942;6.946;2024-02-28T12:56:15;53.50;;;26.97;;
17596;SDS011;8917;50.942;6.946;2024-02-28T12:58:43;38.43;;;21.83;;
17596;SDS011;8917;50.942;6.946;2024-02-28T13:01:11;39.07;;;24.53;;
17596;SDS011;8917;50.942;6.946;2024-02-28T13:03:38;30.20;;;20.63;;
17596;SDS011;8917;50.942;6.946;2024-02-28T13:06:05;34.20;;;21.73;;
17596;SDS011;8917;50.942;6.946;2024-02-28T13:08:32;31.13;;;21.50;;
17596;SDS011;8917;50.942;6.946;2024-02-28T13:10:59;33.87;;;22.07;;
17596;SDS011;8917;50.942;6.946;2024-02-28T13:13:27;30.40;;;20.87;;
17596;SDS011;8917;50.942;6.946;2024-02-28T13:15:55;34.40;;;21.97;;
17596;SDS011;8917;50.942;6.946;2024-02-28T13:18:22;35.57;;;22.70;;
17596;SDS011;8917;50.942;6.946;2024-02-28T13:20:50;30.53;;;20.77;;
17596;SDS011;8917;50.942;6.946;2024-02-28T13:23:18;32.97;;;21.33;;
17596;SDS011;8917;50.942;6.946;2024-02-28T13:25:45;35.90;;;21.73;;
17596;SDS011;8917;50.942;6.946;2024-02-28T13:28:12;35.57;;;21.63;;
17596;SDS011;8917;50.942;6.946;2024-02-28T13:30:40;34.73;;;20.73;;
17596;SDS011;8917;50.942;6.946;2024-02-28T13:33:09;34.60;;;20.93;;
17596;SDS011;8917;50.942;6.946;2024-02-28T13:35:36;33.67;;;21.13;;
17596;SDS011;8917;50.942;6.946;2024-02-28T13:38:03;32.20;;;20.53;;
17596;SDS011;8917;50.942;6.946;2024-02-28T13:40:30;29.67;;;20.13;;
17596;SDS011;8917;50.942;6.946;2024-02-28T13:42:58;28.87;;;19.43;;
17596;SDS011;8917;50.942;6.946;2024-02-28T13:45:25;31.20;;;19.73;;
17596;SDS011;8917;50.942;6.946;2024-02-28T13:47:52;34.00;;;20.73;;
17596;SDS011;8917;50.942;6.946;2024-02-28T13:50:21;29.27;;;19.90;;
17596;SDS011;8917;50.942;6.946;2024-02-28T13:52:49;34.37;;;19.77;;
17596;SDS011;8917;50.942;6.946;2024-02-28T13:55:16;29.37;;;19.00;;
17596;SDS011;8917;50.942;6.946;2024-02-28T13:57:43;31.10;;;20.30;;
17596;SDS011;8917;50.942;6.946;2024-02-28T14:00:11;28.90;;;19.17;;
17596;SDS011;8917;50.942;6.946;2024-02-28T14:02:39;30.53;;;17.80;;
17596;SDS011;8917;50.942;6.946;2024-02-28T14:05:06;28.47;;;18.10;;
17596;SDS011;8917;50.942;6.946;2024-02-28T14:07:35;39.63;;;20.13;;
17596;SDS011;8917;50.942;6.946;2024-02-28T14:10:04;27.23;;;17.23;;
17596;SDS011;8917;50.942;6.946;2024-02-28T14:12:32;25.70;;;17.40;;
17596;SDS011;8917;50.942;6.946;2024-02-28T14:14:59;27.07;;;17.63;;
17596;SDS011;8917;50.942;6.946;2024-02-28T14:17:26;31.80;;;17.53;;
17596;SDS011;8917;50.942;6.946;2024-02-28T14:19:53;26.17;;;17.03;;
17596;SDS011;8917;50.942;6.946;2024-02-28T14:22:20;26.90;;;17.43;;
17596;SDS011;8917;50.942;6.946;2024-02-28T14:24:49;24.70;;;16.87;;
17596;SDS011;8917;50.942;6.946;2024-02-28T14:27:16;24.43;;;16.70;;
17596;SDS011;8917;50.942;6.946;2024-02-28T14:29:44;26.77;;;16.80;;
17596;SDS011;8917;50.942;6.946;2024-02-28T14:32:11;27.93;;;17.43;;
17596;SDS011;8917;50.942;6.946;2024-02-28T14:34:39;22.67;;;14.97;;
17596;SDS011;8917;50.942;6.946;2024-02-28T14:37:06;23.23;;;15.97;;